Time;durP1;ratioP1;P1;durP2;ratioP2;P2;SDS_P1;SDS_P2;PMS_P1;PMS_P2;Temp;Humidity;BMP_temperature;BMP_pressure;BME280_temperature;BME280_humidity;BME280_pressure;Samples;Min_cycle;Max_cycle;Signal;HPM_P1;HPM_P2
2021/06/01 00:01:29;;;;;;;;;;;16.40;37.20;;;;;;5059578;28;19934;-82
2021/06/01 00:03:54;;;;;;;;;;;16.40;37.60;;;;;;5061264;28;19995;-82
2021/06/01 00:06:20;;;;;;;;;;;16.40;37.90;;;;;;5060397;28;20013;-82
2021/06/01 00:08:45;;;;;;;;;;;16.30;38.10;;;;;;5091416;28;19916;-82
2021/06/01 00:11:11;;;;;;;;;;;16.20;38.30;;;;;;5084484;28;20003;-82
2021/06/01 00:13:37;;;;;;;;;;;16.10;38.50;;;;;;5094416;28;19913;-82
2021/06/01 00:16:03;;;;;;;;;;;16.20;38.90;;;;;;5056845;28;19916;-82
2021/06/01 00:18:29;;;;;;;;;;;16.10;39.10;;;;;;5057700;28;19912;-82
2021/06/01 00:20:55;;;;;;;;;;;16.00;39.10;;;;;;5059942;28;19961;-82
2021/06/01 00:23:20;;;;;;;;;;;16.10;39.20;;;;;;5076796;28;19955;-83
2021/06/01 00:25:46;;;;;;;;;;;16.10;39.30;;;;;;5078707;28;19912;-83
2021/06/01 00:28:11;;;;;;;;;;;16.00;39.30;;;;;;5096086;28;19920;-82
2021/06/01 00:30:37;;;;;;;;;;;16.00;39.50;;;;;;5060793;28;19966;-82
2021/06/01 00:33:03;;;;;;;;;;;16.00;39.60;;;;;;5080716;28;19959;-83
2021/06/01 00:35:28;;;;;;;;;;;16.00;39.70;;;;;;5081658;28;19920;-82
2021/06/01 00:37:54;;;;;;;;;;;16.00;39.90;;;;;;5063308;28;20315;-83
2021/06/01 00:40:20;;;;;;;;;;;15.90;39.90;;;;;;5064687;28;19917;-82
2021/06/01 00:42:45;;;;;;;;;;;15.90;40.10;;;;;;5063426;28;19989;-82
2021/06/01 00:45:17;;;;;;;;;;;15.90;40.40;;;;;;5082103;28;19970;-82
2021/06/01 00:47:42;;;;;;;;;;;15.80;40.40;;;;;;5081145;28;20257;-82
2021/06/01 00:50:08;;;;;;;;;;;15.70;40.50;;;;;;5082022;28;19913;-82
2021/06/01 00:52:33;;;;;;;;;;;15.70;40.60;;;;;;5062242;28;19913;-82
2021/06/01 00:54:59;;;;;;;;;;;15.70;40.80;;;;;;5081953;28;19932;-82
2021/06/01 00:57:24;;;;;;;;;;;15.60;41.30;;;;;;5063504;28;19913;-82
2021/06/01 00:59:50;;;;;;;;;;;15.60;41.70;;;;;;5063352;28;19912;-82
2021/06/01 01:02:15;;;;;;;;;;;15.60;41.90;;;;;;5062581;28;20296;-82
2021/06/01 01:04:41;;;;;;;;;;;15.50;41.80;;;;;;5063515;28;19916;-83
2021/06/01 01:07:20;;;;;;;;;;;15.50;41.80;;;;;;5062939;28;19912;-82
2021/06/01 01:09:47;;;;;;;;;;;15.50;41.90;;;;;;5081164;28;19913;-82
2021/06/01 01:12:23;;;;;;;;;;;15.50;42.00;;;;;;5061797;28;19991;-82
2021/06/01 01:14:59;;;;;;;;;;;15.40;41.80;;;;;;5062830;28;19912;-83
2021/06/01 01:17:25;;;;;;;;;;;15.40;41.90;;;;;;5080068;28;19912;-82
2021/06/01 01:20:10;;;;;;;;;;;15.40;41.80;;;;;;5063696;28;19974;-83
2021/06/01 01:22:42;;;;;;;;;;;15.30;41.70;;;;;;5062232;28;19913;-82
2021/06/01 01:25:14;;;;;;;;;;;15.30;41.80;;;;;;5063141;28;19912;-82
2021/06/01 01:27:58;;;;;;;;;;;15.20;41.80;;;;;;5071773;28;20015;-82
2021/06/01 01:30:24;;;;;;;;;;;15.20;41.80;;;;;;5063251;28;19942;-82
2021/06/01 01:33:13;;;;;;;;;;;15.20;41.60;;;;;;5080248;28;19912;-82
2021/06/01 01:35:40;;;;;;;;;;;15.20;41.60;;;;;;5072563;28;19919;-82
2021/06/01 01:38:05;;;;;;;;;;;15.20;41.50;;;;;;5078668;28;19913;-83
2021/06/01 01:40:33;;;;;;;;;;;15.20;41.40;;;;;;5063323;28;20473;-82
2021/06/01 01:43:04;;;;;;;;;;;15.20;41.30;;;;;;5080366;28;19913;-82
2021/06/01 01:45:33;;;;;;;;;;;15.10;41.20;;;;;;5063698;28;19912;-82
2021/06/01 01:50:45;;;;;;;;;;;15.10;41.20;;;;;;5081380;28;19958;-82
2021/06/01 01:53:14;;;;;;;;;;;14.80;40.90;;;;;;5062671;28;19912;-84
2021/06/01 01:55:41;;;;;;;;;;;14.90;41.00;;;;;;5062392;28;19913;-82
2021/06/01 01:58:07;;;;;;;;;;;14.80;41.30;;;;;;5062064;28;20323;-83
2021/06/01 02:00:32;;;;;;;;;;;14.70;41.30;;;;;;5062590;28;19916;-82
2021/06/01 02:02:58;;;;;;;;;;;14.70;41.60;;;;;;5081498;28;19936;-82
2021/06/01 02:05:24;;;;;;;;;;;14.50;41.70;;;;;;5080223;28;19916;-83
2021/06/01 02:07:49;;;;;;;;;;;14.60;42.10;;;;;;5079362;28;19920;-82
2021/06/01 02:10:15;;;;;;;;;;;14.50;42.20;;;;;;5062673;28;19913;-83
2021/06/01 02:12:40;;;;;;;;;;;14.50;42.40;;;;;;5079024;28;19963;-83
2021/06/01 02:15:07;;;;;;;;;;;14.40;42.40;;;;;;5079662;28;20054;-83
2021/06/01 02:17:33;;;;;;;;;;;14.40;42.40;;;;;;5079115;28;19984;-84
2021/06/01 02:19:58;;;;;;;;;;;14.40;42.30;;;;;;5080154;28;20009;-83
2021/06/01 02:25:21;;;;;;;;;;;14.60;42.40;;;;;;5053484;28;19932;-82
2021/06/01 02:27:52;;;;;;;;;;;14.40;42.30;;;;;;5070174;28;19919;-82
2021/06/01 02:30:20;;;;;;;;;;;14.30;42.50;;;;;;5080678;28;19912;-83
2021/06/01 02:32:50;;;;;;;;;;;14.30;42.80;;;;;;5079014;28;20274;-82
2021/06/01 02:35:17;;;;;;;;;;;14.30;43.10;;;;;;5078104;28;20020;-82
2021/06/01 02:37:45;;;;;;;;;;;14.20;43.30;;;;;;5062152;28;19931;-82
2021/06/01 02:40:12;;;;;;;;;;;14.20;43.60;;;;;;5079007;28;19920;-82
2021/06/01 02:42:38;;;;;;;;;;;14.10;43.80;;;;;;5079620;28;19909;-82
2021/06/01 02:45:05;;;;;;;;;;;14.20;44.00;;;;;;5079627;28;19912;-82
2021/06/01 02:47:31;;;;;;;;;;;14.10;44.10;;;;;;5061938;28;19920;-82
2021/06/01 02:49:56;;;;;;;;;;;14.10;44.20;;;;;;5094582;28;19916;-82
2021/06/01 02:52:22;;;;;;;;;;;14.10;44.10;;;;;;5051182;28;19912;-82
2021/06/01 02:54:49;;;;;;;;;;;14.10;44.00;;;;;;5078621;28;19970;-82
2021/06/01 02:57:15;;;;;;;;;;;14.10;43.90;;;;;;5078453;28;20338;-83
2021/06/01 02:59:40;;;;;;;;;;;14.10;43.80;;;;;;5061873;28;20297;-84
2021/06/01 03:02:06;;;;;;;;;;;14.00;43.60;;;;;;5060788;28;19920;-83
2021/06/01 03:04:32;;;;;;;;;;;14.00;43.50;;;;;;5079335;28;20333;-83
2021/06/01 03:06:58;;;;;;;;;;;14.10;43.50;;;;;;5060983;28;19967;-83
2021/06/01 03:09:24;;;;;;;;;;;14.00;43.30;;;;;;5061457;28;19912;-84
2021/06/01 03:11:50;;;;;;;;;;;14.00;43.20;;;;;;5074554;28;19923;-82
2021/06/01 03:14:15;;;;;;;;;;;14.10;43.30;;;;;;5066703;28;19919;-83
2021/06/01 03:16:41;;;;;;;;;;;14.00;43.20;;;;;;5061231;28;19999;-83
2021/06/01 03:19:06;;;;;;;;;;;13.80;43.00;;;;;;5061265;28;19909;-83
2021/06/01 03:21:33;;;;;;;;;;;13.90;43.10;;;;;;5059995;28;19913;-83
2021/06/01 03:23:59;;;;;;;;;;;13.90;43.00;;;;;;5058849;28;19912;-83
2021/06/01 03:26:24;;;;;;;;;;;13.90;43.00;;;;;;5052974;28;19947;-83
2021/06/01 03:28:50;;;;;;;;;;;13.80;42.90;;;;;;5077644;28;19917;-83
2021/06/01 03:31:15;;;;;;;;;;;13.80;42.90;;;;;;5077544;28;19955;-83
2021/06/01 03:33:41;;;;;;;;;;;13.80;43.00;;;;;;5078615;28;20277;-83
2021/06/01 03:36:06;;;;;;;;;;;13.80;43.00;;;;;;5059859;28;19920;-83
2021/06/01 03:38:34;;;;;;;;;;;13.80;43.00;;;;;;5093946;28;19915;-83
2021/06/01 03:41:00;;;;;;;;;;;13.80;43.00;;;;;;5060035;28;19913;-82
2021/06/01 03:43:25;;;;;;;;;;;13.80;43.50;;;;;;5078456;28;20645;-83
2021/06/01 03:45:51;;;;;;;;;;;13.90;42.90;;;;;;5060914;28;19979;-83
2021/06/01 03:48:16;;;;;;;;;;;13.80;42.80;;;;;;5061250;28;20292;-83
2021/06/01 03:50:42;;;;;;;;;;;13.70;42.70;;;;;;5077349;28;19948;-83
2021/06/01 03:53:07;;;;;;;;;;;13.70;42.70;;;;;;5060480;28;19913;-83
2021/06/01 03:55:33;;;;;;;;;;;13.70;42.70;;;;;;5060730;28;19920;-83
2021/06/01 03:57:58;;;;;;;;;;;13.60;42.70;;;;;;5060809;28;19912;-84
2021/06/01 04:00:28;;;;;;;;;;;13.70;42.80;;;;;;5077997;28;19913;-83
2021/06/01 04:02:53;;;;;;;;;;;13.70;42.80;;;;;;5078239;28;19912;-83
2021/06/01 04:05:21;;;;;;;;;;;13.70;42.90;;;;;;5077163;28;19942;-83
2021/06/01 04:07:47;;;;;;;;;;;13.80;43.00;;;;;;5050581;28;19954;-83
2021/06/01 04:10:13;;;;;;;;;;;13.70;42.90;;;;;;5064041;28;19916;-83
2021/06/01 04:12:39;;;;;;;;;;;13.80;43.70;;;;;;5081483;28;19935;-83
2021/06/01 04:15:05;;;;;;;;;;;13.90;43.20;;;;;;5064845;28;19912;-83
2021/06/01 04:17:30;;;;;;;;;;;13.90;43.20;;;;;;5063445;28;19939;-83
2021/06/01 04:19:56;;;;;;;;;;;13.90;43.20;;;;;;5080462;28;19912;-83
2021/06/01 04:22:21;;;;;;;;;;;13.90;43.20;;;;;;5064278;28;19932;-83
2021/06/01 04:24:47;;;;;;;;;;;14.00;43.30;;;;;;5064350;28;19920;-83
2021/06/01 04:27:12;;;;;;;;;;;14.00;43.20;;;;;;5106491;28;19912;-83
2021/06/01 04:29:38;;;;;;;;;;;14.00;43.20;;;;;;5081846;28;19970;-83
2021/06/01 04:32:03;;;;;;;;;;;14.10;43.40;;;;;;5083106;28;19931;-83
2021/06/01 04:34:29;;;;;;;;;;;14.20;43.40;;;;;;5080125;28;19988;-83
2021/06/01 04:36:54;;;;;;;;;;;14.30;43.30;;;;;;5064624;28;19912;-83
2021/06/01 04:39:20;;;;;;;;;;;14.30;43.30;;;;;;5082177;28;19917;-83
2021/06/01 04:41:45;;;;;;;;;;;14.40;43.40;;;;;;5064344;28;19991;-84
2021/06/01 04:44:11;;;;;;;;;;;14.50;43.40;;;;;;5082374;28;19917;-83
2021/06/01 04:46:36;;;;;;;;;;;14.50;43.50;;;;;;5080964;28;20320;-84
2021/06/01 04:49:02;;;;;;;;;;;14.50;43.70;;;;;;5081945;28;19956;-84
2021/06/01 04:51:28;;;;;;;;;;;14.60;43.80;;;;;;5064309;28;19951;-83
2021/06/01 04:53:55;;;;;;;;;;;14.60;44.00;;;;;;5068833;28;19991;-83
2021/06/01 04:56:21;;;;;;;;;;;14.70;44.20;;;;;;5082319;28;19923;-83
2021/06/01 04:58:47;;;;;;;;;;;14.70;44.40;;;;;;5081619;28;19943;-83
2021/06/01 05:01:13;;;;;;;;;;;14.70;44.40;;;;;;5081204;28;19912;-83
2021/06/01 05:03:39;;;;;;;;;;;14.90;44.70;;;;;;5063372;28;20284;-83
2021/06/01 05:06:05;;;;;;;;;;;14.90;44.70;;;;;;5064444;28;20319;-83
2021/06/01 05:08:30;;;;;;;;;;;14.90;44.60;;;;;;5081310;28;20328;-83
2021/06/01 05:10:56;;;;;;;;;;;15.00;44.60;;;;;;5082619;28;20011;-83
2021/06/01 05:13:21;;;;;;;;;;;15.10;44.50;;;;;;5063843;28;19916;-83
2021/06/01 05:15:49;;;;;;;;;;;15.30;44.50;;;;;;5063777;28;19917;-83
2021/06/01 05:18:15;;;;;;;;;;;15.30;44.40;;;;;;5063265;28;19969;-83
2021/06/01 05:20:40;;;;;;;;;;;15.40;45.10;;;;;;5081623;28;20141;-83
2021/06/01 05:23:06;;;;;;;;;;;15.50;44.60;;;;;;5063494;28;19928;-83
2021/06/01 05:25:31;;;;;;;;;;;15.60;44.70;;;;;;5082077;28;19912;-83
2021/06/01 05:27:57;;;;;;;;;;;15.50;44.70;;;;;;5081341;28;19923;-83
2021/06/01 05:30:24;;;;;;;;;;;15.70;44.80;;;;;;5081275;28;19995;-83
2021/06/01 05:35:38;;;;;;;;;;;15.90;45.00;;;;;;5062193;28;19981;-83
2021/06/01 05:38:04;;;;;;;;;;;16.00;45.10;;;;;;5052367;28;19934;-83
2021/06/01 05:40:29;;;;;;;;;;;16.10;45.50;;;;;;5079801;28;19971;-84
2021/06/01 05:42:58;;;;;;;;;;;16.20;45.80;;;;;;5064484;28;19913;-84
2021/06/01 05:45:23;;;;;;;;;;;16.40;46.00;;;;;;5064914;28;19908;-84
2021/06/01 05:47:49;;;;;;;;;;;16.50;46.50;;;;;;5079953;28;19912;-83
2021/06/01 05:50:14;;;;;;;;;;;16.60;46.80;;;;;;5082007;28;20007;-83
2021/06/01 05:52:40;;;;;;;;;;;16.60;46.90;;;;;;5064405;28;19913;-84
2021/06/01 05:55:06;;;;;;;;;;;16.80;47.00;;;;;;5064406;28;19963;-84
2021/06/01 05:57:31;;;;;;;;;;;17.00;46.80;;;;;;5062985;28;19919;-83
2021/06/01 05:59:57;;;;;;;;;;;17.20;46.50;;;;;;5064416;28;19908;-84
2021/06/01 06:02:22;;;;;;;;;;;17.70;46.40;;;;;;5076764;28;20400;-83
2021/06/01 06:04:50;;;;;;;;;;;18.70;46.10;;;;;;5079710;28;19976;-84
2021/06/01 06:07:16;;;;;;;;;;;21.20;45.10;;;;;;5066774;28;19912;-84
2021/06/01 06:09:41;;;;;;;;;;;25.20;41.60;;;;;;5085378;28;20337;-84
2021/06/01 06:12:07;;;;;;;;;;;29.10;36.90;;;;;;5063988;28;19912;-84
2021/06/01 06:14:33;;;;;;;;;;;32.20;32.60;;;;;;5060632;28;20050;-84
2021/06/01 06:17:10;;;;;;;;;;;34.50;30.00;;;;;;5085963;28;20062;-85
2021/06/01 06:19:41;;;;;;;;;;;36.60;28.40;;;;;;5062345;28;20284;-82
2021/06/01 06:22:09;;;;;;;;;;;38.50;27.80;;;;;;5054989;28;19921;-82
2021/06/01 06:24:34;;;;;;;;;;;40.00;26.00;;;;;;5058098;28;19916;-82
2021/06/01 06:27:00;;;;;;;;;;;41.10;24.70;;;;;;5062501;28;19917;-82
2021/06/01 06:29:26;;;;;;;;;;;42.10;24.20;;;;;;5073351;28;19978;-82
2021/06/01 06:31:51;;;;;;;;;;;43.10;23.90;;;;;;5074300;28;19915;-82
2021/06/01 06:34:17;;;;;;;;;;;43.80;22.00;;;;;;5072025;28;19956;-82
2021/06/01 06:36:42;;;;;;;;;;;44.40;21.90;;;;;;5054522;28;19962;-82
2021/06/01 06:39:09;;;;;;;;;;;44.80;21.10;;;;;;5055286;28;20300;-83
2021/06/01 06:41:34;;;;;;;;;;;45.20;21.10;;;;;;5073024;28;19923;-83
2021/06/01 06:44:00;;;;;;;;;;;45.80;20.70;;;;;;5055738;28;19920;-83
2021/06/01 06:46:37;;;;;;;;;;;46.40;20.00;;;;;;5072734;28;19946;-83
2021/06/01 06:49:12;;;;;;;;;;;47.20;19.70;;;;;;5070930;28;20007;-83
2021/06/01 06:51:40;;;;;;;;;;;48.10;18.80;;;;;;5055005;28;19919;-83
2021/06/01 06:54:06;;;;;;;;;;;49.10;18.40;;;;;;5073600;28;20387;-83
2021/06/01 06:56:31;;;;;;;;;;;50.30;18.40;;;;;;5070083;28;19912;-84
2021/06/01 06:59:00;;;;;;;;;;;51.30;17.80;;;;;;5070457;28;20897;-84
2021/06/01 07:01:28;;;;;;;;;;;52.00;17.00;;;;;;5073066;28;20009;-84
2021/06/01 07:03:55;;;;;;;;;;;52.70;16.80;;;;;;5071105;28;20016;-84
2021/06/01 07:06:21;;;;;;;;;;;53.30;16.20;;;;;;5056081;28;20045;-84
2021/06/01 07:08:56;;;;;;;;;;;;;;;;;;;;;
2021/06/01 07:11:22;;;;;;;;;;;54.10;16.30;;;;;;5067153;28;19920;-84
2021/06/01 07:13:56;;;;;;;;;;;55.10;16.30;;;;;;5074041;28;20107;-84
2021/06/01 07:16:21;;;;;;;;;;;55.50;15.70;;;;;;5073539;28;19919;-84
2021/06/01 07:18:49;;;;;;;;;;;55.60;15.10;;;;;;5066902;28;20364;-84
2021/06/01 07:21:15;;;;;;;;;;;55.90;15.40;;;;;;5052652;28;19913;-84
2021/06/01 07:23:41;;;;;;;;;;;56.10;15.60;;;;;;5068914;28;19912;-85
2021/06/01 07:26:09;;;;;;;;;;;56.50;15.30;;;;;;5065672;28;19964;-85
2021/06/01 07:28:40;;;;;;;;;;;56.30;14.90;;;;;;5043546;28;19916;-84
2021/06/01 07:31:07;;;;;;;;;;;56.00;14.80;;;;;;5051654;28;19943;-85
2021/06/01 07:33:40;;;;;;;;;;;56.30;15.10;;;;;;5049477;28;19940;-84
2021/06/01 07:36:05;;;;;;;;;;;56.60;14.70;;;;;;5066236;28;19970;-83
2021/06/01 07:38:31;;;;;;;;;;;56.00;14.40;;;;;;5068270;28;19908;-83
2021/06/01 07:40:56;;;;;;;;;;;55.90;14.80;;;;;;5064482;28;19920;-84
2021/06/01 07:43:22;;;;;;;;;;;55.90;14.90;;;;;;5060726;28;19909;-83
2021/06/01 07:45:50;;;;;;;;;;;56.20;15.00;;;;;;5069024;28;20364;-83
2021/06/01 07:48:15;;;;;;;;;;;56.20;15.00;;;;;;5067428;28;19919;-83
2021/06/01 07:50:41;;;;;;;;;;;56.30;15.20;;;;;;5053195;28;20298;-83
2021/06/01 07:53:06;;;;;;;;;;;56.70;15.10;;;;;;5052754;28;19908;-83
2021/06/01 07:55:32;;;;;;;;;;;56.80;15.10;;;;;;5054956;28;19908;-83
2021/06/01 07:57:58;;;;;;;;;;;56.60;15.30;;;;;;5055704;28;19916;-83
2021/06/01 08:00:25;;;;;;;;;;;56.30;15.00;;;;;;5093799;28;20290;-84
2021/06/01 08:02:51;;;;;;;;;;;56.60;15.20;;;;;;5073244;28;19909;-84
2021/06/01 08:05:19;;;;;;;;;;;56.80;15.30;;;;;;5088356;28;19914;-84
2021/06/01 08:07:45;;;;;;;;;;;57.00;15.30;;;;;;5085680;28;19931;-83
2021/06/01 08:10:11;;;;;;;;;;;56.50;14.60;;;;;;5074488;28;19920;-83
2021/06/01 08:12:37;;;;;;;;;;;56.10;14.80;;;;;;5055242;28;19928;-83
2021/06/01 08:15:05;;;;;;;;;;;56.10;15.00;;;;;;5071487;28;20010;-82
2021/06/01 08:17:31;;;;;;;;;;;56.10;15.10;;;;;;5055586;28;20285;-82
2021/06/01 08:20:02;;;;;;;;;;;56.20;15.10;;;;;;5057119;28;19919;-82
2021/06/01 08:24:52;;;;;;;;;;;56.00;15.00;;;;;;5071203;28;19912;-82
2021/06/01 08:27:18;;;;;;;;;;;55.80;15.20;;;;;;5062601;28;19920;-82
2021/06/01 08:29:43;;;;;;;;;;;55.60;15.10;;;;;;5051287;28;19925;-82
2021/06/01 08:32:09;;;;;;;;;;;54.70;14.40;;;;;;5050148;28;19924;-82
2021/06/01 08:34:34;;;;;;;;;;;54.20;14.70;;;;;;5074561;28;19916;-83
2021/06/01 08:37:02;;;;;;;;;;;53.60;14.60;;;;;;5053261;28;19916;-82
2021/06/01 08:39:28;;;;;;;;;;;53.20;14.60;;;;;;5068952;28;20003;-82
2021/06/01 08:41:54;;;;;;;;;;;53.50;14.90;;;;;;5052901;28;20011;-82
2021/06/01 08:44:20;;;;;;;;;;;53.40;14.90;;;;;;5053278;28;19920;-82
2021/06/01 08:46:49;;;;;;;;;;;53.40;14.70;;;;;;5050671;28;19912;-81
2021/06/01 08:49:16;;;;;;;;;;;53.10;14.90;;;;;;5051282;28;19917;-82
2021/06/01 08:51:41;;;;;;;;;;;52.80;14.70;;;;;;5071225;28;19958;-82
2021/06/01 08:54:07;;;;;;;;;;;52.40;14.90;;;;;;5059633;28;19912;-81
2021/06/01 08:56:32;;;;;;;;;;;52.60;15.20;;;;;;5074225;28;20007;-82
2021/06/01 08:58:58;;;;;;;;;;;52.40;14.90;;;;;;5059618;28;19913;-82
2021/06/01 09:01:23;;;;;;;;;;;52.10;14.60;;;;;;5060622;28;19919;-82
2021/06/01 09:03:54;;;;;;;;;;;51.50;14.70;;;;;;5087865;28;19913;-81
2021/06/01 09:06:31;;;;;;;;;;;51.20;15.00;;;;;;5054018;28;20007;-81
2021/06/01 09:22:30;;;;;;;;;;;48.80;14.60;;;;;;5081215;28;19969;-81
2021/06/01 09:25:00;;;;;;;;;;;48.70;14.60;;;;;;5094996;28;19916;-82
2021/06/01 09:27:29;;;;;;;;;;;48.60;14.80;;;;;;5066336;28;19935;-81
2021/06/01 09:29:54;;;;;;;;;;;48.50;14.90;;;;;;5085852;28;19924;-81
2021/06/01 09:32:23;;;;;;;;;;;48.40;15.00;;;;;;5080203;28;19917;-81
2021/06/01 09:34:50;;;;;;;;;;;48.40;15.10;;;;;;5077513;28;19913;-81
2021/06/01 09:37:15;;;;;;;;;;;48.10;14.90;;;;;;5080149;28;19912;-81
2021/06/01 09:39:41;;;;;;;;;;;48.00;15.10;;;;;;5095047;28;19912;-81
2021/06/01 09:42:26;;;;;;;;;;;47.50;14.90;;;;;;5096706;28;19909;-81
2021/06/01 09:45:10;;;;;;;;;;;47.30;14.90;;;;;;5078117;28;19939;-81
2021/06/01 09:47:42;;;;;;;;;;;47.10;15.00;;;;;;5064288;28;19920;-81
2021/06/01 09:52:49;;;;;;;;;;;46.50;14.60;;;;;;5086211;28;20350;-81
2021/06/01 09:55:16;;;;;;;;;;;45.80;14.60;;;;;;5066430;28;19943;-81
2021/06/01 09:57:43;;;;;;;;;;;45.00;14.80;;;;;;5068075;28;19912;-81
2021/06/01 10:00:16;;;;;;;;;;;44.80;15.00;;;;;;5091868;28;19942;-81
2021/06/01 10:02:43;;;;;;;;;;;44.50;15.00;;;;;;5083515;28;19913;-81
2021/06/01 10:05:19;;;;;;;;;;;43.90;15.20;;;;;;5084563;28;19975;-81
2021/06/01 10:07:46;;;;;;;;;;;43.60;15.50;;;;;;5065688;28;19913;-82
2021/06/01 10:10:12;;;;;;;;;;;43.80;15.90;;;;;;5071476;28;19923;-81
2021/06/01 10:12:38;;;;;;;;;;;44.00;15.50;;;;;;5069232;28;20000;-81
2021/06/01 10:15:03;;;;;;;;;;;43.50;15.50;;;;;;5067795;28;19983;-81
2021/06/01 10:17:29;;;;;;;;;;;43.00;15.30;;;;;;5069078;28;20004;-81
2021/06/01 10:19:54;;;;;;;;;;;42.60;15.40;;;;;;5063599;28;19920;-81
2021/06/01 10:22:20;;;;;;;;;;;42.00;15.60;;;;;;5089283;28;19921;-81
2021/06/01 10:24:45;;;;;;;;;;;41.50;15.80;;;;;;5081087;28;19958;-80
2021/06/01 10:27:11;;;;;;;;;;;41.50;16.10;;;;;;5060306;28;20299;-81
2021/06/01 10:29:37;;;;;;;;;;;41.70;16.10;;;;;;5082416;28;19916;-81
2021/06/01 10:32:02;;;;;;;;;;;42.00;16.10;;;;;;5067718;28;19917;-81
2021/06/01 10:34:31;;;;;;;;;;;42.60;16.30;;;;;;5075952;28;19944;-81
2021/06/01 10:42:40;;;;;;;;;;;42.00;16.30;;;;;;5079806;28;19980;-81
2021/06/01 10:50:32;;;;;;;;;;;42.10;16.30;;;;;;5066917;28;19954;-81
2021/06/01 10:53:26;;;;;;;;;;;42.10;16.20;;;;;;5079303;28;20381;-81
2021/06/01 10:55:56;;;;;;;;;;;41.60;16.30;;;;;;5050021;28;19916;-81
2021/06/01 10:58:28;;;;;;;;;;;41.40;16.70;;;;;;5076599;28;19921;-82
2021/06/01 11:04:24;;;;;;;;;;;40.90;16.70;;;;;;5076235;28;19979;-82
2021/06/01 11:06:59;;;;;;;;;;;40.60;16.90;;;;;;5053836;28;19916;-81
2021/06/01 11:09:33;;;;;;;;;;;40.20;17.00;;;;;;5086970;28;19916;-81
2021/06/01 11:12:00;;;;;;;;;;;40.00;17.20;;;;;;5091355;28;19919;-82
2021/06/01 11:14:32;;;;;;;;;;;39.70;17.40;;;;;;5075166;28;19912;-81
2021/06/01 11:16:58;;;;;;;;;;;39.50;17.40;;;;;;5090764;28;19912;-81
2021/06/01 11:19:29;;;;;;;;;;;39.30;17.50;;;;;;5066904;28;19909;-81
2021/06/01 11:22:01;;;;;;;;;;;39.30;17.80;;;;;;5071583;28;19913;-80
2021/06/01 11:35:23;;;;;;;;;;;39.20;18.10;;;;;;5070321;28;19920;-81
2021/06/01 11:41:20;;;;;;;;;;;39.20;18.10;;;;;;5076917;28;20411;-81
2021/06/01 11:43:13;;;;;;;;;;;39.20;18.10;;;;;;5067859;28;19916;-81
2021/06/01 11:45:43;;;;;;;;;;;39.30;18.00;;;;;;5073954;28;19919;-81
2021/06/01 11:50:58;;;;;;;;;;;38.60;18.10;;;;;;5071640;28;20015;-81
2021/06/01 11:53:24;;;;;;;;;;;38.30;18.40;;;;;;5083643;28;19912;-82
2021/06/01 11:55:58;;;;;;;;;;;38.30;18.60;;;;;;5069391;28;20011;-82
2021/06/01 12:04:11;;;;;;;;;;;38.00;18.70;;;;;;5073618;28;20117;-81
2021/06/01 12:12:46;;;;;;;;;;;37.70;19.00;;;;;;5070817;28;19963;-81
2021/06/01 12:18:36;;;;;;;;;;;37.60;19.20;;;;;;5068085;28;19982;-81
2021/06/01 12:21:04;;;;;;;;;;;37.40;19.40;;;;;;5080513;28;19944;-81
2021/06/01 12:23:29;;;;;;;;;;;37.00;19.30;;;;;;5081517;28;20007;-81
2021/06/01 12:26:02;;;;;;;;;;;36.80;19.40;;;;;;5067291;28;19967;-81
2021/06/01 12:31:17;;;;;;;;;;;36.80;19.70;;;;;;5078218;28;19951;-81
2021/06/01 12:33:43;;;;;;;;;;;36.70;19.60;;;;;;5084445;28;19912;-81
2021/06/01 12:44:08;;;;;;;;;;;35.30;20.30;;;;;;5069133;28;19959;-82
2021/06/01 12:46:42;;;;;;;;;;;35.00;20.70;;;;;;5073357;28;20350;-81
2021/06/01 13:09:14;;;;;;;;;;;34.00;21.80;;;;;;5089315;28;19916;-82
2021/06/01 13:19:27;;;;;;;;;;;33.10;22.00;;;;;;5078606;28;19959;-81
2021/06/01 13:22:05;;;;;;;;;;;33.10;22.10;;;;;;5090390;28;19916;-81
2021/06/01 13:39:27;;;;;;;;;;;32.40;22.60;;;;;;5076637;28;20409;-81
2021/06/01 13:47:16;;;;;;;;;;;32.00;22.80;;;;;;5082766;28;19920;-81
2021/06/01 13:49:45;;;;;;;;;;;31.70;23.00;;;;;;5078973;28;19958;-80
2021/06/01 14:00:34;;;;;;;;;;;30.10;24.00;;;;;;5078664;28;19970;-80
2021/06/01 14:54:41;;;;;;;;;;;28.50;25.50;;;;;;5078310;28;19974;-81
2021/06/01 15:07:22;;;;;;;;;;;28.50;25.90;;;;;;5076854;28;19988;-81
2021/06/01 15:08:31;;;;;;;;;;;28.40;25.70;;;;;;5081519;28;19938;-81
2021/06/01 15:49:13;;;;;;;;;;;28.20;26.30;;;;;;5095833;28;19966;-81
2021/06/01 16:30:16;;;;;;;;;;;28.00;26.40;;;;;;5081999;28;19923;-80
2021/06/01 16:43:47;;;;;;;;;;;27.60;26.80;;;;;;5073356;28;19919;-80
2021/06/01 17:05:33;;;;;;;;;;;27.20;26.80;;;;;;5083528;28;19934;-81
2021/06/01 17:13:27;;;;;;;;;;;27.30;26.90;;;;;;5081816;28;20292;-80
2021/06/01 17:15:56;;;;;;;;;;;27.30;26.90;;;;;;5084782;28;19913;-81
2021/06/01 17:36:52;;;;;;;;;;;26.90;26.90;;;;;;5089987;28;19926;-83
2021/06/01 17:39:18;;;;;;;;;;;26.90;26.90;;;;;;5073648;28;19924;-82
2021/06/01 17:41:45;;;;;;;;;;;26.90;27.00;;;;;;5084848;28;19960;-82
2021/06/01 17:44:11;;;;;;;;;;;26.80;27.00;;;;;;5078589;28;19965;-82
2021/06/01 17:46:37;;;;;;;;;;;26.80;27.00;;;;;;5069589;28;20344;-82
2021/06/01 17:49:04;;;;;;;;;;;26.70;27.00;;;;;;5080775;28;19913;-82
2021/06/01 17:51:30;;;;;;;;;;;26.70;27.10;;;;;;5083190;28;19921;-82
2021/06/01 17:53:58;;;;;;;;;;;26.60;27.20;;;;;;5083975;28;19974;-82
2021/06/01 17:56:25;;;;;;;;;;;26.60;27.50;;;;;;5064422;28;20007;-81
2021/06/01 17:58:51;;;;;;;;;;;26.50;27.60;;;;;;5072857;28;19973;-82
2021/06/01 18:01:17;;;;;;;;;;;26.40;27.70;;;;;;5111307;28;19908;-82
2021/06/01 18:04:00;;;;;;;;;;;26.30;27.80;;;;;;5088871;28;20003;-83
2021/06/01 18:06:29;;;;;;;;;;;26.30;27.90;;;;;;5081809;28;19936;-83
2021/06/01 18:09:03;;;;;;;;;;;26.30;28.00;;;;;;5064060;28;19959;-82
2021/06/01 18:53:04;;;;;;;;;;;25.10;29.40;;;;;;5078896;28;19919;-81
2021/06/01 19:25:25;;;;;;;;;;;24.00;29.50;;;;;;5076963;28;19942;-81
2021/06/01 19:28:16;;;;;;;;;;;23.70;29.50;;;;;;5076714;28;19920;-81
2021/06/01 19:49:59;;;;;;;;;;;22.90;30.00;;;;;;5079386;28;20339;-82
2021/06/01 19:52:26;;;;;;;;;;;22.80;30.00;;;;;;5094638;28;19913;-82
2021/06/01 19:54:54;;;;;;;;;;;22.70;30.00;;;;;;5061089;28;19908;-82
2021/06/01 19:57:23;;;;;;;;;;;22.70;30.00;;;;;;5071178;28;19968;-80
2021/06/01 19:59:49;;;;;;;;;;;22.60;30.00;;;;;;5094843;28;20413;-80
2021/06/01 20:02:26;;;;;;;;;;;22.50;30.00;;;;;;5057557;28;19992;-80
2021/06/01 20:04:52;;;;;;;;;;;22.50;30.10;;;;;;5061057;28;19916;-83
2021/06/01 20:07:19;;;;;;;;;;;22.50;30.20;;;;;;5092120;28;19919;-81
2021/06/01 20:09:45;;;;;;;;;;;22.40;30.20;;;;;;5061086;28;19912;-81
2021/06/01 20:12:11;;;;;;;;;;;22.40;30.20;;;;;;5074305;28;19908;-81
2021/06/01 20:14:37;;;;;;;;;;;22.30;30.20;;;;;;5059807;28;20035;-83
2021/06/01 20:17:05;;;;;;;;;;;22.30;30.30;;;;;;5078999;28;20364;-83
2021/06/01 20:19:32;;;;;;;;;;;22.30;30.30;;;;;;5095006;28;19916;-83
2021/06/01 20:21:57;;;;;;;;;;;22.20;30.30;;;;;;5079446;28;19912;-83
2021/06/01 20:24:25;;;;;;;;;;;22.10;30.30;;;;;;5079622;28;19936;-83
2021/06/01 20:26:51;;;;;;;;;;;22.10;30.40;;;;;;5090199;28;19959;-82
2021/06/01 20:29:20;;;;;;;;;;;22.00;30.40;;;;;;5094759;28;19919;-82
2021/06/01 20:31:57;;;;;;;;;;;21.90;30.50;;;;;;5093371;28;19999;-82
2021/06/01 20:34:25;;;;;;;;;;;21.80;30.50;;;;;;5061552;28;19915;-83
2021/06/01 20:36:51;;;;;;;;;;;21.70;30.60;;;;;;5095078;28;19980;-84
2021/06/01 20:39:16;;;;;;;;;;;21.70;30.70;;;;;;5063520;28;20023;-83
2021/06/01 20:41:43;;;;;;;;;;;21.60;30.70;;;;;;5058839;28;19944;-82
2021/06/01 20:44:09;;;;;;;;;;;21.60;30.80;;;;;;5081553;28;19976;-82
2021/06/01 20:46:35;;;;;;;;;;;21.50;30.70;;;;;;5079831;28;19920;-82
2021/06/01 20:49:01;;;;;;;;;;;21.50;30.80;;;;;;5091218;28;19912;-83
2021/06/01 20:51:27;;;;;;;;;;;21.40;31.40;;;;;;5088441;28;19909;-83
2021/06/01 20:53:54;;;;;;;;;;;21.30;30.90;;;;;;5068916;28;19908;-83
2021/06/01 20:56:30;;;;;;;;;;;21.20;30.90;;;;;;5067624;28;19920;-83
2021/06/01 20:58:56;;;;;;;;;;;21.00;31.00;;;;;;5068048;28;19920;-83
2021/06/01 21:01:26;;;;;;;;;;;20.80;31.20;;;;;;5083877;28;20369;-83
2021/06/01 21:03:53;;;;;;;;;;;20.70;31.90;;;;;;5088011;28;20297;-82
2021/06/01 21:06:19;;;;;;;;;;;20.60;31.30;;;;;;5097787;28;19912;-82
2021/06/01 21:08:44;;;;;;;;;;;20.60;31.50;;;;;;5083667;28;19918;-83
2021/06/01 21:11:10;;;;;;;;;;;20.50;31.50;;;;;;5079788;28;19948;-83
2021/06/01 21:13:55;;;;;;;;;;;20.50;31.60;;;;;;5064776;28;19913;-82
2021/06/01 21:16:21;;;;;;;;;;;20.50;31.60;;;;;;5072505;28;19912;-83
2021/06/01 21:18:47;;;;;;;;;;;20.50;31.60;;;;;;5089598;28;19917;-83
2021/06/01 21:21:15;;;;;;;;;;;20.50;31.60;;;;;;5064435;28;19922;-84
2021/06/01 21:23:41;;;;;;;;;;;20.50;31.70;;;;;;5064621;28;19913;-84